Time,TemperatureF,DewpointF,PressureIn,WindDirection,WindDirectionDegrees,WindSpeedMPH,WindSpeedGustMPH,Humidity,HourlyPrecipIn,Conditions,Clouds,dailyrainin,SoftwareType,DateUTC
2013-04-27 00:02:00,49.0,48.0,30.31,NE,48,2.0,3.0,97,0.09,,,0.00,weatherlink.com 1.10,2013-04-27 05:02:00,
2013-04-27 00:18:00,49.0,48.0,30.30,NE,48,0.0,0.0,97,0.09,,,0.01,weatherlink.com 1.10,2013-04-27 05:18:00,
2013-04-27 00:33:00,49.1,48.0,30.30,NE,48,0.0,0.0,97,0.09,,,0.04,weatherlink.com 1.10,2013-04-27 05:33:00,
2013-04-27 00:48:00,49.0,48.0,30.30,NE,48,0.0,1.0,97,0.08,,,0.06,weatherlink.com 1.10,2013-04-27 05:48:00,
2013-04-27 01:03:00,49.0,48.0,30.29,NE,48,1.0,2.0,97,0.08,,,0.08,weatherlink.com 1.10,2013-04-27 06:03:00,
2013-04-27 01:18:00,49.0,48.0,30.29,NE,51,0.0,4.0,97,0.08,,,0.09,weatherlink.com 1.10,2013-04-27 06:18:00,
2013-04-27 01:33:00,49.0,48.0,30.27,ENE,59,1.0,2.0,97,0.06,,,0.10,weatherlink.com 1.10,2013-04-27 06:33:00,
2013-04-27 01:48:00,48.9,48.0,30.26,ENE,57,0.0,2.0,97,0.04,,,0.10,weatherlink.com 1.10,2013-04-27 06:48:00,
2013-04-27 02:03:00,49.0,48.0,30.24,NE,53,2.0,3.0,97,0.02,,,0.10,weatherlink.com 1.10,2013-04-27 07:03:00,
2013-04-27 02:18:00,49.0,48.0,30.23,ENE,72,0.0,4.0,97,0.01,,,0.10,weatherlink.com 1.10,2013-04-27 07:18:00,
2013-04-27 02:33:00,49.0,48.0,30.23,NE,41,0.0,4.0,97,0.00,,,0.10,weatherlink.com 1.10,2013-04-27 07:33:00,
2013-04-27 02:48:00,49.0,48.0,30.23,NNE,32,0.0,3.0,97,0.00,,,0.10,weatherlink.com 1.10,2013-04-27 07:48:00,
2013-04-27 03:03:00,49.2,48.0,30.24,NNE,31,2.0,5.0,97,0.00,,,0.10,weatherlink.com 1.10,2013-04-27 08:03:00,
2013-04-27 03:18:00,49.3,49.0,30.24,NW,322,0.0,3.0,97,0.00,,,0.10,weatherlink.com 1.10,2013-04-27 08:18:00,
2013-04-27 03:33:00,49.4,49.0,30.24,ENE,67,2.0,4.0,97,0.01,,,0.11,weatherlink.com 1.10,2013-04-27 08:33:00,
2013-04-27 03:48:00,49.4,49.0,30.20,ENE,72,1.0,6.0,97,0.05,,,0.15,weatherlink.com 1.10,2013-04-27 08:48:00,
2013-04-27 04:03:00,49.5,49.0,30.20,ENE,70,2.0,8.0,97,0.10,,,0.20,weatherlink.com 1.10,2013-04-27 09:03:00,
2013-04-27 04:18:00,49.6,49.0,30.20,East,88,0.0,6.0,97,0.10,,,0.20,weatherlink.com 1.10,2013-04-27 09:18:00,
2013-04-27 04:33:00,49.6,49.0,30.20,ENE,65,0.0,7.0,97,0.09,,,0.20,weatherlink.com 1.10,2013-04-27 09:33:00,
2013-04-27 04:48:00,49.7,49.0,30.20,NE,38,0.0,7.0,97,0.06,,,0.21,weatherlink.com 1.10,2013-04-27 09:48:00,
2013-04-27 05:03:00,49.7,49.0,30.20,WSW,241,0.0,7.0,97,0.02,,,0.22,weatherlink.com 1.10,2013-04-27 10:03:00,
2013-04-27 05:18:00,49.7,49.0,30.19,ESE,111,0.0,3.0,97,0.04,,,0.24,weatherlink.com 1.10,2013-04-27 10:18:00,
2013-04-27 05:33:00,49.7,49.0,30.18,ENE,69,2.0,5.0,97,0.06,,,0.26,weatherlink.com 1.10,2013-04-27 10:33:00,
2013-04-27 05:48:00,49.7,49.0,30.18,NE,47,1.0,4.0,97,0.05,,,0.26,weatherlink.com 1.10,2013-04-27 10:48:00,
2013-04-27 06:03:00,49.8,49.0,30.18,NE,47,1.0,3.0,97,0.04,,,0.26,weatherlink.com 1.10,2013-04-27 11:03:00,
2013-04-27 06:18:00,49.9,49.0,30.18,NE,47,1.0,7.0,97,0.02,,,0.26,weatherlink.com 1.10,2013-04-27 11:18:00,
2013-04-27 06:33:00,50.0,49.0,30.18,ENE,72,0.0,4.0,97,0.00,,,0.26,weatherlink.com 1.10,2013-04-27 11:33:00,
2013-04-27 06:48:00,50.1,49.0,30.18,ENE,57,2.0,5.0,97,0.00,,,0.26,weatherlink.com 1.10,2013-04-27 11:48:00,
2013-04-27 07:04:00,50.2,49.0,30.21,North,2,0.0,4.0,97,0.00,,,0.26,weatherlink.com 1.10,2013-04-27 12:04:00,
2013-04-27 07:19:00,50.3,50.0,30.19,ENE,63,2.0,3.0,97,0.01,,,0.27,weatherlink.com 1.10,2013-04-27 12:19:00,
2013-04-27 07:34:00,50.4,50.0,30.16,ENE,59,1.0,7.0,97,0.02,,,0.28,weatherlink.com 1.10,2013-04-27 12:34:00,
2013-04-27 07:49:00,50.6,50.0,30.16,East,100,2.0,7.0,97,0.03,,,0.29,weatherlink.com 1.10,2013-04-27 12:49:00,
2013-04-27 08:04:00,50.9,50.0,30.15,ENE,70,1.0,7.0,97,0.03,,,0.29,weatherlink.com 1.10,2013-04-27 13:04:00,
2013-04-27 08:19:00,51.2,50.0,30.14,NE,40,1.0,7.0,97,0.02,,,0.29,weatherlink.com 1.10,2013-04-27 13:19:00,
2013-04-27 08:34:00,51.5,51.0,30.15,East,100,0.0,8.0,97,0.01,,,0.29,weatherlink.com 1.10,2013-04-27 13:34:00,
2013-04-27 08:49:00,51.5,51.0,30.17,NE,55,1.0,2.0,97,0.00,,,0.29,weatherlink.com 1.10,2013-04-27 13:49:00,
2013-04-27 09:04:00,51.6,51.0,30.18,NE,51,0.0,3.0,97,0.01,,,0.30,weatherlink.com 1.10,2013-04-27 14:04:00,
2013-04-27 09:19:00,51.6,51.0,30.17,ENE,75,1.0,3.0,97,0.06,,,0.35,weatherlink.com 1.10,2013-04-27 14:19:00,
2013-04-27 09:34:00,51.6,51.0,30.18,NE,53,0.0,2.0,97,0.12,,,0.41,weatherlink.com 1.10,2013-04-27 14:34:00,
2013-04-27 09:49:00,51.7,51.0,30.16,ENE,66,3.0,3.0,97,0.15,,,0.44,weatherlink.com 1.10,2013-04-27 14:49:00,
2013-04-27 10:04:00,51.8,51.0,30.12,North,357,0.0,9.0,97,0.18,,,0.48,weatherlink.com 1.10,2013-04-27 15:04:00,
2013-04-27 10:19:00,52.1,52.0,30.12,ENE,61,0.0,4.0,98,0.14,,,0.49,weatherlink.com 1.10,2013-04-27 15:19:00,
2013-04-27 10:34:00,52.5,52.0,30.13,NE,46,1.0,6.0,97,0.08,,,0.49,weatherlink.com 1.10,2013-04-27 15:34:00,
2013-04-27 10:49:00,52.8,52.0,30.13,NE,43,2.0,5.0,98,0.05,,,0.49,weatherlink.com 1.10,2013-04-27 15:49:00,
2013-04-27 11:04:00,53.3,53.0,30.12,East,84,6.0,8.0,97,0.01,,,0.49,weatherlink.com 1.10,2013-04-27 16:04:00,
2013-04-27 11:19:00,54.0,54.0,30.13,East,81,1.0,3.0,98,0.00,,,0.49,weatherlink.com 1.10,2013-04-27 16:19:00,
2013-04-27 11:34:00,54.5,54.0,30.12,ENE,73,0.0,6.0,97,0.00,,,0.49,weatherlink.com 1.10,2013-04-27 16:34:00,
2013-04-27 11:49:00,55.3,55.0,30.11,East,89,0.0,5.0,97,0.00,,,0.49,weatherlink.com 1.10,2013-04-27 16:49:00,
2013-04-27 12:04:00,56.0,55.0,30.10,ENE,66,1.0,6.0,97,0.00,,,0.49,weatherlink.com 1.10,2013-04-27 17:04:00,
2013-04-27 12:19:00,56.8,56.0,30.09,East,99,0.0,6.0,97,0.00,,,0.49,weatherlink.com 1.10,2013-04-27 17:19:00,
2013-04-27 12:34:00,57.3,56.0,30.09,ESE,123,0.0,4.0,95,0.00,,,0.49,weatherlink.com 1.10,2013-04-27 17:34:00,
2013-04-27 12:49:00,57.5,56.0,30.08,ENE,66,0.0,6.0,94,0.00,,,0.49,weatherlink.com 1.10,2013-04-27 17:49:00,
2013-04-27 13:04:00,57.9,56.0,30.08,ESE,123,0.0,6.0,94,0.00,,,0.49,weatherlink.com 1.10,2013-04-27 18:04:00,
2013-04-27 13:19:00,58.1,56.0,30.07,SSE,154,2.0,8.0,94,0.00,,,0.49,weatherlink.com 1.10,2013-04-27 18:19:00,
2013-04-27 13:34:00,58.5,57.0,30.06,ESE,108,0.0,4.0,94,0.00,,,0.49,weatherlink.com 1.10,2013-04-27 18:34:00,
2013-04-27 13:49:00,58.6,56.0,30.07,SE,136,3.0,9.0,92,0.00,,,0.49,weatherlink.com 1.10,2013-04-27 18:49:00,
2013-04-27 14:04:00,59.0,57.0,30.06,SSE,151,1.0,8.0,93,0.00,,,0.49,weatherlink.com 1.10,2013-04-27 19:04:00,
2013-04-27 14:19:00,59.1,57.0,30.05,SSE,153,2.0,5.0,93,0.00,,,0.49,weatherlink.com 1.10,2013-04-27 19:19:00,
2013-04-27 14:35:00,59.5,58.0,30.05,SE,130,1.0,4.0,93,0.00,,,0.49,weatherlink.com 1.10,2013-04-27 19:35:00,
2013-04-27 14:50:00,60.0,58.0,30.03,South,176,6.0,10.0,92,0.00,,,0.49,weatherlink.com 1.10,2013-04-27 19:50:00,
2013-04-27 15:05:00,60.0,57.0,30.03,SSE,151,4.0,9.0,91,0.00,,,0.49,weatherlink.com 1.10,2013-04-27 20:05:00,
2013-04-27 15:20:00,59.9,57.0,30.02,ESE,111,2.0,8.0,91,0.00,,,0.49,weatherlink.com 1.10,2013-04-27 20:20:00,
2013-04-27 15:35:00,60.1,58.0,30.01,SE,146,0.0,4.0,91,0.00,,,0.49,weatherlink.com 1.10,2013-04-27 20:35:00,
2013-04-27 15:50:00,60.1,58.0,30.00,SSE,153,0.0,4.0,91,0.00,,,0.49,weatherlink.com 1.10,2013-04-27 20:50:00,
2013-04-27 16:05:00,59.7,57.0,30.00,SSE,166,0.0,5.0,92,0.01,,,0.50,weatherlink.com 1.10,2013-04-27 21:05:00,
2013-04-27 16:20:00,59.3,58.0,29.99,SSE,166,0.0,1.0,94,0.06,,,0.55,weatherlink.com 1.10,2013-04-27 21:20:00,
2013-04-27 16:35:00,58.6,57.0,29.95,ENE,77,3.0,9.0,95,0.11,,,0.60,weatherlink.com 1.10,2013-04-27 21:35:00,
2013-04-27 16:50:00,58.3,57.0,29.98,SSE,161,3.0,3.0,95,0.11,,,0.60,weatherlink.com 1.10,2013-04-27 21:50:00,
2013-04-27 17:05:00,58.2,57.0,29.97,ENE,66,1.0,1.0,96,0.10,,,0.60,weatherlink.com 1.10,2013-04-27 22:05:00,
2013-04-27 17:20:00,58.1,57.0,29.96,East,83,0.0,1.0,96,0.05,,,0.60,weatherlink.com 1.10,2013-04-27 22:20:00,
2013-04-27 17:35:00,58.2,57.0,29.94,NNW,335,0.0,3.0,97,0.01,,,0.61,weatherlink.com 1.10,2013-04-27 22:35:00,
2013-04-27 17:50:00,58.2,57.0,29.96,ENE,57,2.0,2.0,96,0.01,,,0.61,weatherlink.com 1.10,2013-04-27 22:50:00,
2013-04-27 18:05:00,58.0,57.0,29.95,ENE,57,0.0,2.0,97,0.01,,,0.61,weatherlink.com 1.10,2013-04-27 23:05:00,
2013-04-27 18:20:00,58.0,57.0,29.95,ENE,57,0.0,1.0,97,0.03,,,0.63,weatherlink.com 1.10,2013-04-27 23:20:00,
2013-04-27 18:35:00,58.0,57.0,29.94,ENE,61,1.0,3.0,97,0.05,,,0.66,weatherlink.com 1.10,2013-04-27 23:35:00,
2013-04-27 18:50:00,58.0,57.0,29.94,NW,326,0.0,2.0,97,0.05,,,0.66,weatherlink.com 1.10,2013-04-27 23:50:00,
2013-04-27 19:05:00,58.2,57.0,29.94,NNE,13,1.0,2.0,97,0.04,,,0.66,weatherlink.com 1.10,2013-04-28 00:05:00,
2013-04-27 19:20:00,58.3,58.0,29.93,ENE,62,0.0,3.0,97,0.03,,,0.66,weatherlink.com 1.10,2013-04-28 00:20:00,
2013-04-27 19:35:00,58.1,57.0,29.92,East,98,0.0,4.0,97,0.01,,,0.67,weatherlink.com 1.10,2013-04-28 00:35:00,
2013-04-27 19:50:00,58.0,57.0,29.91,NE,44,2.0,3.0,97,0.01,,,0.67,weatherlink.com 1.10,2013-04-28 00:50:00,
2013-04-27 20:05:00,57.9,57.0,29.92,North,9,0.0,2.0,97,0.02,,,0.68,weatherlink.com 1.10,2013-04-28 01:05:00,
2013-04-27 20:20:00,57.9,57.0,29.92,NW,320,0.0,1.0,97,0.04,,,0.70,weatherlink.com 1.10,2013-04-28 01:20:00,
2013-04-27 20:35:00,57.9,57.0,29.92,NNE,26,0.0,2.0,97,0.03,,,0.70,weatherlink.com 1.10,2013-04-28 01:35:00,
2013-04-27 20:50:00,57.9,57.0,29.92,NNE,26,0.0,0.0,97,0.04,,,0.71,weatherlink.com 1.10,2013-04-28 01:50:00,
2013-04-27 21:05:00,57.7,57.0,29.91,NE,37,0.0,2.0,97,0.03,,,0.71,weatherlink.com 1.10,2013-04-28 02:05:00,
2013-04-27 21:20:00,57.8,57.0,29.92,NE,37,0.0,0.0,98,0.01,,,0.71,weatherlink.com 1.10,2013-04-28 02:20:00,
2013-04-27 21:35:00,57.9,57.0,29.91,NE,45,0.0,2.0,98,0.01,,,0.71,weatherlink.com 1.10,2013-04-28 02:35:00,
2013-04-27 21:50:00,57.9,57.0,29.91,NE,45,1.0,2.0,98,0.00,,,0.71,weatherlink.com 1.10,2013-04-28 02:50:00,
2013-04-27 22:05:00,58.0,58.0,29.89,NE,43,1.0,3.0,98,0.00,,,0.71,weatherlink.com 1.10,2013-04-28 03:05:00,
2013-04-27 22:20:00,57.9,57.0,29.90,East,80,0.0,1.0,98,0.00,,,0.71,weatherlink.com 1.10,2013-04-28 03:20:00,
2013-04-27 22:35:00,57.8,57.0,29.89,East,80,0.0,1.0,98,0.00,,,0.71,weatherlink.com 1.10,2013-04-28 03:35:00,
2013-04-27 22:50:00,57.5,57.0,29.90,East,80,0.0,0.0,97,0.00,,,0.71,weatherlink.com 1.10,2013-04-28 03:50:00,
2013-04-27 23:05:00,57.6,57.0,29.91,East,81,0.0,1.0,98,0.00,,,0.71,weatherlink.com 1.10,2013-04-28 04:05:00,
2013-04-27 23:20:00,57.8,57.0,29.91,East,81,0.0,0.0,98,0.00,,,0.71,weatherlink.com 1.10,2013-04-28 04:20:00,
2013-04-27 23:35:00,57.8,57.0,29.91,SSE,159,0.0,1.0,98,0.00,,,0.71,weatherlink.com 1.10,2013-04-28 04:35:00,
2013-04-27 23:50:00,57.8,57.0,29.90,SSE,159,0.0,1.0,98,0.00,,,0.71,weatherlink.com 1.10,2013-04-28 04:50:00,